Latest Weather Observations for Georgetown Airport

IDQ60801

Issued at 8:05 pm EST Monday 28 July 2014 (issued every 30 minutes, with the page automatically refreshed every 10 minutes)

About weather observations | Map of weather stations | Latest weather observations for QLD | Other Formats
Station Details ID: 030124 Name: GEORGETOWN AIRPORT Lat: -18.30 Lon: 143.53 Height: 301.77 m
Data from the previous 72 hours. | See also: Recent months at Georgetown Airport
Date/Time
EST
Temp
°C
App
Temp
°C
Dew
Point
Rel
Hum
%
Delta-T
°C
Wind Press
QNH
hPa
Press
MSL
hPa
Rain
since 9 am
mm
Dir
 
Spd
km/h
Gust
km/h
Spd
kts
Gust
kts
28/08:00pm 22.8 21.7 10.6 46 6.8 SE 7 13 4 7 1018.0 - 0.0
28/07:30pm 21.9 20.5 8.8 43 7.0 SSE 6 9 3 5 1017.6 - 0.0
28/07:00pm 23.5 23.0 8.0 37 8.3 CALM 0 0 0 0 1017.2 - 0.0
28/06:30pm 26.2 24.5 8.2 32 9.8 WSW 7 7 4 4 1016.8 - 0.0
28/06:00pm 28.0 27.7 8.8 30 10.7 CALM 0 0 0 0 1016.5 1015.5 0.0
28/05:30pm 29.0 27.6 8.7 28 11.3 NW 6 9 3 5 1016.3 - 0.0
28/05:00pm 29.3 27.6 8.4 27 11.6 NNW 7 9 4 5 1016.2 - 0.0
28/04:30pm 29.7 28.1 8.2 26 11.9 N 6 13 3 7 1016.1 - 0.0
28/04:00pm 29.1 28.3 8.2 27 11.6 ESE 2 9 1 5 1016.2 - 0.0
28/03:30pm 29.4 27.0 8.5 27 11.6 E 11 17 6 9 1016.3 - 0.0
28/03:00pm 29.3 27.7 7.8 26 11.8 NNW 6 13 3 7 1016.6 1015.6 0.0
28/02:30pm 28.6 26.1 8.3 28 11.2 S 11 22 6 12 1016.9 - 0.0
28/02:00pm 29.2 25.3 8.8 28 11.4 SSW 19 28 10 15 1017.2 - 0.0
28/01:30pm 28.7 26.6 8.4 28 11.3 NE 9 17 5 9 1017.8 - 0.0
28/01:00pm 28.2 25.9 9.0 30 10.7 ESE 11 24 6 13 1018.5 - 0.0
28/12:30pm 27.9 25.1 10.1 33 10.1 ENE 15 30 8 16 1018.8 - 0.0
28/12:00pm 27.3 24.5 10.1 34 9.7 ESE 15 24 8 13 1019.4 1018.4 0.0
28/11:30am 27.0 23.5 10.2 35 9.5 E 19 26 10 14 1019.8 - 0.0
28/11:00am 26.5 22.9 10.6 37 9.0 E 20 28 11 15 1020.2 - 0.0
28/10:30am 25.6 22.3 11.0 40 8.3 ESE 19 30 10 16 1020.5 - 0.0
28/10:00am 24.5 20.4 11.5 44 7.4 E 24 37 13 20 1020.8 - 0.0
28/09:30am 23.5 20.7 12.5 50 6.4 E 19 26 10 14 1020.7 - 0.0
28/09:00am 22.5 21.0 13.0 55 5.5 E 13 19 7 10 1020.6 1019.7 0.0
28/08:30am 21.0 18.7 12.9 60 4.7 E 17 24 9 13 1020.3 - 0.0
28/08:00am 20.1 19.0 13.1 64 4.0 ESE 11 15 6 8 1020.2 - 0.0
28/07:30am 18.8 18.0 13.0 69 3.3 E 9 15 5 8 1019.8 - 0.0
28/07:00am 17.9 17.1 12.8 72 2.9 ESE 9 13 5 7 1019.7 - 0.0
28/06:30am 17.9 17.4 12.8 72 2.9 SE 7 11 4 6 1019.6 - 0.0
28/06:00am 18.2 17.3 12.6 70 3.2 SE 9 13 5 7 1019.4 1018.4 0.0
28/05:30am 18.6 17.8 13.0 70 3.2 SE 9 15 5 8 1019.1 - 0.0
28/05:00am 18.5 18.1 12.9 70 3.2 SSE 7 11 4 6 1019.0 - 0.0
28/04:30am 18.7 18.9 12.9 69 3.3 SE 4 9 2 5 1018.9 - 0.0
28/04:00am 18.9 18.6 13.3 70 3.2 ESE 7 15 4 8 1018.9 - 0.0
28/03:30am 19.2 18.1 13.2 68 3.4 E 11 24 6 13 1018.9 - 0.0
28/03:00am 19.3 18.3 13.5 69 3.3 E 11 17 6 9 1019.0 1018.0 0.0
28/02:30am 19.8 18.1 13.7 68 3.5 E 15 24 8 13 1019.1 - 0.0
28/02:00am 19.8 18.1 13.7 68 3.5 E 15 20 8 11 1019.2 - 0.0
28/01:30am 19.9 18.6 13.6 67 3.7 E 13 20 7 11 1019.3 - 0.0
28/01:00am 20.4 18.4 13.8 66 3.9 ENE 17 20 9 11 1019.5 - 0.0
28/12:30am 20.2 19.0 12.9 63 4.2 E 11 22 6 12 1019.7 - 0.0
28/12:00am 21.0 19.5 13.2 61 4.5 E 13 20 7 11 1019.9 1018.9 0.0
 
Date/Time
EST
Temp
°C
App
Temp
°C
Dew
Point
Rel
Hum
%
Delta-T
°C
Wind Press
QNH
hPa
Press
MSL
hPa
Rain
since 9 am
mm
Dir
 
Spd
km/h
Gust
km/h
Spd
kts
Gust
kts
27/11:30pm 21.4 19.1 13.1 59 4.8 ENE 17 26 9 14 1020.0 - 0.0
27/11:00pm 22.0 19.7 13.1 57 5.2 E 17 24 9 13 1020.1 - 0.0
27/10:30pm 22.2 19.8 12.7 55 5.5 ENE 17 26 9 14 1020.1 - 0.0
27/10:00pm 22.6 20.6 12.8 54 5.7 E 15 20 8 11 1020.1 - 0.0
27/09:30pm 22.8 21.2 12.7 53 5.9 E 13 19 7 10 1020.1 - 0.0
27/09:00pm 23.5 21.5 12.8 51 6.2 E 15 24 8 13 1019.9 1018.9 0.0
27/08:30pm 23.2 21.8 12.2 50 6.3 E 11 15 6 8 1019.7 - 0.0
27/08:00pm 23.0 21.7 11.4 48 6.6 E 9 11 5 6 1019.5 - 0.0
27/07:30pm 24.2 23.0 11.5 45 7.3 E 9 13 5 7 1019.2 - 0.0
27/07:00pm 25.1 23.4 11.3 42 7.9 E 11 17 6 9 1018.9 - 0.0
27/06:30pm 26.0 24.4 11.4 40 8.4 E 11 19 6 10 1018.5 - 0.0
27/06:00pm 27.2 24.2 10.8 36 9.4 ESE 17 28 9 15 1018.0 1017.0 0.0
27/05:30pm 28.0 25.1 11.1 35 9.8 ESE 17 28 9 15 1017.7 - 0.0
27/05:00pm 28.5 26.3 10.7 33 10.2 ESE 13 20 7 11 1017.6 - 0.0
27/04:30pm 29.5 27.4 11.1 32 10.7 E 13 20 7 11 1017.4 - 0.0
27/04:00pm 30.1 28.0 11.1 31 11.1 E 13 26 7 14 1017.3 - 0.0
27/03:30pm 28.7 25.9 11.3 34 10.1 ESE 17 28 9 15 1017.3 - 0.0
27/03:00pm 29.2 26.4 11.3 33 10.4 SE 17 24 9 13 1017.5 1016.5 0.0
27/02:30pm 29.3 27.0 11.8 34 10.3 ENE 15 28 8 15 1017.7 - 0.0
27/02:00pm 28.9 26.8 11.0 33 10.4 SE 13 26 7 14 1018.2 - 0.0
27/01:30pm 28.7 25.5 11.3 34 10.1 SE 19 28 10 15 1018.7 - 0.0
27/01:00pm 28.7 25.3 11.3 34 10.1 ENE 20 26 11 14 1019.2 - 0.0
27/12:30pm 28.1 25.5 12.0 36 9.4 ESE 17 33 9 18 1019.9 - 0.0
27/12:00pm 27.3 24.9 12.5 40 8.7 E 17 30 9 16 1020.4 1019.4 0.0
27/11:30am 26.8 23.5 11.7 39 8.8 SE 20 32 11 17 1020.7 - 0.0
27/11:00am 26.4 22.8 11.7 40 8.5 SE 22 37 12 20 1021.0 - 0.0
27/10:30am 25.9 22.7 12.0 42 8.1 ESE 20 33 11 18 1021.2 - 0.0
27/10:00am 24.7 21.8 13.0 48 6.9 ESE 20 35 11 19 1021.6 - 0.0
27/09:30am 23.2 20.4 13.1 53 5.9 SE 20 35 11 19 1021.8 - 0.0
27/09:00am 22.3 19.8 13.4 57 5.2 ESE 19 28 10 15 1021.7 1020.7 0.0
27/08:30am 21.3 19.2 13.7 62 4.4 ESE 17 24 9 13 1021.6 - 0.0
27/08:00am 20.1 18.7 13.3 65 3.9 ESE 13 20 7 11 1021.3 - 0.0
27/07:30am 18.5 18.2 12.7 69 3.3 SE 6 13 3 7 1020.9 - 0.0
27/07:00am 17.1 16.5 12.4 74 2.6 ESE 7 11 4 6 1020.7 - 0.0
27/06:30am 17.3 16.3 12.2 72 2.9 ESE 9 11 5 6 1020.4 - 0.0
27/06:00am 17.9 16.9 12.4 70 3.1 ESE 9 13 5 7 1020.1 1019.1 0.0
27/05:30am 18.0 17.4 12.2 69 3.3 SE 7 9 4 5 1019.9 - 0.0
27/05:00am 18.3 17.8 12.5 69 3.3 ESE 7 13 4 7 1019.7 - 0.0
27/04:30am 18.4 17.2 12.8 70 3.2 ESE 11 17 6 9 1019.7 - 0.0
27/04:00am 17.6 16.9 13.1 75 2.6 E 9 11 5 6 1019.7 - 0.0
27/03:30am 16.5 16.0 12.7 78 2.1 E 7 13 4 7 1020.0 - 0.0
27/03:00am 16.9 16.4 12.0 73 2.7 E 6 7 3 4 1020.3 - 0.0
27/02:30am 17.8 17.4 12.3 70 3.1 E 6 7 3 4 1020.6 - 0.0
27/02:00am 19.2 18.8 12.9 67 3.6 E 7 9 4 5 1020.8 - 0.0
27/01:30am 19.8 19.0 13.0 65 3.9 E 9 11 5 6 1021.0 - 0.0
27/01:00am 20.6 19.6 13.3 63 4.2 E 11 19 6 10 1021.3 - 0.0
27/12:30am 21.1 20.0 13.0 60 4.7 ESE 11 17 6 9 1021.5 - 0.0
27/12:00am 21.5 20.3 12.9 58 5.0 E 11 19 6 10 1021.7 1020.7 0.0
 
Date/Time
EST
Temp
°C
App
Temp
°C
Dew
Point
Rel
Hum
%
Delta-T
°C
Wind Press
QNH
hPa
Press
MSL
hPa
Rain
since 9 am
mm
Dir
 
Spd
km/h
Gust
km/h
Spd
kts
Gust
kts
26/11:30pm 21.8 20.1 12.6 56 5.3 E 13 19 7 10 1021.7 - 0.0
26/11:00pm 22.2 20.8 12.2 53 5.7 ESE 11 17 6 9 1021.7 - 0.0
26/10:30pm 22.6 21.5 12.0 51 6.1 ESE 9 17 5 9 1021.7 - 0.0
26/10:00pm 23.1 21.6 11.8 49 6.5 ESE 11 17 6 9 1021.6 - 0.0
26/09:30pm 23.7 21.5 12.0 48 6.7 E 15 22 8 12 1021.5 - 0.0
26/09:00pm 24.1 23.0 11.8 46 7.1 E 9 13 5 7 1021.3 - 0.0
26/08:30pm 25.1 23.3 12.0 44 7.6 E 13 22 7 12 1021.5 - 0.0
26/08:00pm 25.5 23.7 12.0 43 7.8 ESE 13 20 7 11 1021.0 - 0.0
26/07:30pm 25.8 24.2 11.6 41 8.2 ESE 11 15 6 8 1020.8 - 0.0
26/07:00pm 26.1 24.6 11.8 41 8.3 ESE 11 15 6 8 1020.3 - 0.0
26/06:30pm 26.5 24.6 11.8 40 8.5 ESE 13 17 7 9 1020.0 - 0.0
26/06:00pm 26.8 25.1 11.3 38 8.9 SE 11 22 6 12 1019.7 1018.7 0.0
26/05:30pm 27.5 25.1 11.5 37 9.3 SE 15 26 8 14 1019.2 - 0.0
26/05:00pm 27.8 25.0 11.4 36 9.5 ESE 17 28 9 15 1018.9 - 0.0
26/04:30pm 28.2 24.8 11.3 35 9.8 ESE 20 33 11 18 1018.8 - 0.0
26/04:00pm 28.6 25.3 11.6 34 9.9 ESE 20 30 11 16 1018.7 - 0.0
26/03:30pm 29.3 26.3 11.8 34 10.3 ESE 19 30 10 16 1018.6 - 0.0
26/03:00pm 28.6 25.9 11.6 34 9.9 ESE 17 24 9 13 1018.6 1017.6 0.0
26/02:30pm 29.0 26.4 12.0 35 10.0 ESE 17 24 9 13 1018.6 - 0.0
26/02:00pm 27.9 24.9 11.9 37 9.4 E 19 26 10 14 1019.0 - 0.0
26/01:30pm 27.4 24.9 12.2 39 8.9 ESE 17 26 9 14 1019.5 - 0.0
26/01:00pm 26.8 23.4 12.4 40 8.5 E 22 32 12 17 1020.1 - 0.0
26/12:30pm 26.5 23.9 13.3 44 7.8 ESE 19 33 10 18 1020.7 - 0.0
26/12:00pm 25.6 23.3 14.1 49 6.9 ESE 19 30 10 16 1021.6 1020.6 0.0
26/11:30am 25.5 23.4 14.6 51 6.6 E 19 28 10 15 1022.1 - 0.0
26/11:00am 24.7 22.6 14.8 54 6.0 E 19 26 10 14 1022.3 - 0.0
26/10:30am 23.9 22.0 15.1 58 5.3 E 19 28 10 15 1022.5 - 0.0
26/10:00am 23.2 22.1 15.3 61 4.8 ESE 15 28 8 15 1022.9 - 0.0
26/09:30am 21.3 19.2 14.7 66 3.9 ESE 19 28 10 15 1022.8 - 0.0
26/09:00am 21.1 19.8 14.7 67 3.8 ESE 15 22 8 12 1023.0 1022.0 0.0
26/08:30am 20.8 20.2 14.7 68 3.6 ESE 11 19 6 10 1022.9 - 0.0
26/08:00am 20.2 20.4 14.8 71 3.2 ESE 7 15 4 8 1022.7 - 0.0
26/07:30am 19.5 19.6 14.5 73 2.9 SE 7 13 4 7 1022.0 - 0.0
26/07:00am 19.6 18.7 14.8 74 2.8 ESE 13 20 7 11 1021.9 - 0.0
26/06:30am 18.9 18.9 14.2 74 2.7 SSE 7 9 4 5 1021.7 - 0.0
26/06:00am 18.8 19.7 13.9 73 2.8 SE 2 7 1 4 1021.5 1020.5 0.0
26/05:30am 19.2 19.6 13.8 71 3.1 SSE 4 7 2 4 1021.2 - 0.0
26/05:00am 19.5 19.3 13.7 69 3.4 ESE 7 11 4 6 1021.0 - 0.0
26/04:30am 19.5 19.7 13.2 67 3.6 SE 4 6 2 3 1021.3 - 0.0
26/04:00am 19.9 20.6 13.4 66 3.8 ESE 2 7 1 4 1021.3 - 0.0
26/03:30am 20.1 19.4 13.3 65 3.9 E 9 11 5 6 1021.1 - 0.0
26/03:00am 20.2 19.5 13.2 64 4.0 E 9 11 5 6 1021.1 1020.2 0.0
26/02:30am 20.5 20.3 13.5 64 4.1 ESE 7 11 4 6 1021.3 - 0.0
26/02:00am 20.5 20.3 13.5 64 4.1 E 7 9 4 5 1021.5 - 0.0
26/01:30am 20.9 20.8 13.8 64 4.2 E 7 13 4 7 1021.7 - 0.0
26/01:00am 21.1 20.2 13.8 63 4.3 E 11 15 6 8 1021.7 - 0.0
26/12:30am 21.4 20.1 13.6 61 4.6 E 13 20 7 11 1021.8 - 0.0
26/12:00am 21.5 20.1 14.6 65 4.1 E 15 22 8 12 1021.9 1020.9 0.0
 
Date/Time
EST
Temp
°C
App
Temp
°C
Dew
Point
Rel
Hum
%
Delta-T
°C
Wind Press
QNH
hPa
Press
MSL
hPa
Rain
since 9 am
mm
Dir
 
Spd
km/h
Gust
km/h
Spd
kts
Gust
kts
25/11:30pm 21.6 20.0 15.0 66 4.0 E 17 22 9 12 1022.2 - 0.0
25/11:00pm 21.6 20.6 15.7 69 3.6 E 15 22 8 12 1022.3 - 0.0
25/10:30pm 21.8 21.3 15.9 69 3.6 E 13 20 7 11 1022.3 - 0.0
25/10:00pm 22.0 20.8 16.1 69 3.6 E 17 26 9 14 1021.9 - 0.0
25/09:30pm 22.2 21.0 16.0 68 3.8 ESE 17 26 9 14 1021.7 - 0.0
25/09:00pm 23.1 22.0 16.4 66 4.1 E 17 30 9 16 1021.2 1020.3 0.0
25/08:30pm 23.7 22.9 16.2 63 4.6 E 15 22 8 12 1020.6 - 0.0

Other Formats:

Comma delimited format used in spreadsheet applications
http://www.bom.gov.au/fwo/IDQ60801/IDQ60801.94274.axf

JavaScript Object Notation format (JSON) in row-major order
http://www.bom.gov.au/fwo/IDQ60801/IDQ60801.94274.json